sensor_id;sensor_type;location;lat;lon;timestamp;P1;durP1;ratioP1;P2;durP2;ratioP2
77191;SDS011;66172;48.526;8.078;2023-02-28T00:02:22;5.57;;;1.77;;
77191;SDS011;66172;48.526;8.078;2023-02-28T00:04:48;6.35;;;1.50;;
77191;SDS011;66172;48.526;8.078;2023-02-28T00:07:18;6.83;;;1.90;;
77191;SDS011;66172;48.526;8.078;2023-02-28T00:09:44;7.53;;;1.65;;
77191;SDS011;66172;48.526;8.078;2023-02-28T00:12:10;7.60;;;1.92;;
77191;SDS011;66172;48.526;8.078;2023-02-28T00:14:36;8.32;;;2.10;;
77191;SDS011;66172;48.526;8.078;2023-02-28T00:17:02;6.40;;;1.70;;
77191;SDS011;66172;48.526;8.078;2023-02-28T00:19:28;7.18;;;1.60;;
77191;SDS011;66172;48.526;8.078;2023-02-28T00:21:57;5.38;;;1.77;;
77191;SDS011;66172;48.526;8.078;2023-02-28T00:24:23;7.75;;;1.80;;
77191;SDS011;66172;48.526;8.078;2023-02-28T00:26:49;5.03;;;1.40;;
77191;SDS011;66172;48.526;8.078;2023-02-28T00:29:14;6.05;;;1.30;;
77191;SDS011;66172;48.526;8.078;2023-02-28T00:31:40;5.72;;;1.63;;
77191;SDS011;66172;48.526;8.078;2023-02-28T00:34:06;5.50;;;1.53;;
77191;SDS011;66172;48.526;8.078;2023-02-28T00:36:32;5.80;;;1.50;;
77191;SDS011;66172;48.526;8.078;2023-02-28T00:38:58;5.32;;;1.55;;
77191;SDS011;66172;48.526;8.078;2023-02-28T00:41:24;6.38;;;1.40;;
77191;SDS011;66172;48.526;8.078;2023-02-28T00:43:50;5.63;;;1.50;;
77191;SDS011;66172;48.526;8.078;2023-02-28T00:46:16;5.82;;;1.45;;
77191;SDS011;66172;48.526;8.078;2023-02-28T00:48:42;5.53;;;1.63;;
77191;SDS011;66172;48.526;8.078;2023-02-28T00:51:07;6.20;;;1.70;;
77191;SDS011;66172;48.526;8.078;2023-02-28T00:53:33;6.38;;;1.60;;
77191;SDS011;66172;48.526;8.078;2023-02-28T00:55:59;7.28;;;1.58;;
77191;SDS011;66172;48.526;8.078;2023-02-28T00:58:26;5.75;;;1.60;;
77191;SDS011;66172;48.526;8.078;2023-02-28T01:00:52;6.13;;;1.70;;
77191;SDS011;66172;48.526;8.078;2023-02-28T01:03:19;6.07;;;1.70;;
77191;SDS011;66172;48.526;8.078;2023-02-28T01:05:46;5.75;;;1.48;;
77191;SDS011;66172;48.526;8.078;2023-02-28T01:08:12;4.95;;;1.40;;
77191;SDS011;66172;48.526;8.078;2023-02-28T01:10:40;6.93;;;1.73;;
77191;SDS011;66172;48.526;8.078;2023-02-28T01:13:06;5.43;;;1.93;;
77191;SDS011;66172;48.526;8.078;2023-02-28T01:15:32;5.40;;;1.50;;
77191;SDS011;66172;48.526;8.078;2023-02-28T01:17:58;6.18;;;1.58;;
77191;SDS011;66172;48.526;8.078;2023-02-28T01:20:24;6.60;;;1.58;;
77191;SDS011;66172;48.526;8.078;2023-02-28T01:22:50;4.83;;;1.30;;
77191;SDS011;66172;48.526;8.078;2023-02-28T01:25:16;5.95;;;1.63;;
77191;SDS011;66172;48.526;8.078;2023-02-28T01:27:42;5.97;;;1.58;;
77191;SDS011;66172;48.526;8.078;2023-02-28T01:30:08;6.03;;;1.70;;
77191;SDS011;66172;48.526;8.078;2023-02-28T01:32:35;5.87;;;1.57;;
77191;SDS011;66172;48.526;8.078;2023-02-28T01:35:01;5.35;;;1.67;;
77191;SDS011;66172;48.526;8.078;2023-02-28T01:37:27;5.95;;;2.03;;
77191;SDS011;66172;48.526;8.078;2023-02-28T01:39:53;6.13;;;1.70;;
77191;SDS011;66172;48.526;8.078;2023-02-28T01:42:19;5.77;;;1.70;;
77191;SDS011;66172;48.526;8.078;2023-02-28T01:45:00;5.75;;;1.67;;
77191;SDS011;66172;48.526;8.078;2023-02-28T01:47:32;5.68;;;2.00;;
77191;SDS011;66172;48.526;8.078;2023-02-28T01:50:02;7.07;;;1.92;;
77191;SDS011;66172;48.526;8.078;2023-02-28T01:52:31;6.80;;;1.90;;
77191;SDS011;66172;48.526;8.078;2023-02-28T01:54:58;6.37;;;1.90;;
77191;SDS011;66172;48.526;8.078;2023-02-28T01:57:29;5.95;;;1.77;;
77191;SDS011;66172;48.526;8.078;2023-02-28T02:00:13;6.65;;;1.88;;
77191;SDS011;66172;48.526;8.078;2023-02-28T02:02:42;6.45;;;2.10;;
77191;SDS011;66172;48.526;8.078;2023-02-28T02:05:12;6.65;;;2.35;;
77191;SDS011;66172;48.526;8.078;2023-02-28T02:07:42;5.40;;;1.77;;
77191;SDS011;66172;48.526;8.078;2023-02-28T02:10:12;5.55;;;1.70;;
77191;SDS011;66172;48.526;8.078;2023-02-28T02:12:49;5.95;;;1.90;;
77191;SDS011;66172;48.526;8.078;2023-02-28T02:15:32;5.55;;;1.45;;
77191;SDS011;66172;48.526;8.078;2023-02-28T02:18:04;6.47;;;1.73;;
77191;SDS011;66172;48.526;8.078;2023-02-28T02:26:43;5.18;;;1.92;;
77191;SDS011;66172;48.526;8.078;2023-02-28T02:38:11;6.70;;;1.83;;
77191;SDS011;66172;48.526;8.078;2023-02-28T02:40:53;6.30;;;2.05;;
77191;SDS011;66172;48.526;8.078;2023-02-28T02:43:32;5.88;;;2.10;;
77191;SDS011;66172;48.526;8.078;2023-02-28T02:46:00;6.05;;;1.88;;
77191;SDS011;66172;48.526;8.078;2023-02-28T02:48:38;6.10;;;1.80;;
77191;SDS011;66172;48.526;8.078;2023-02-28T02:51:09;5.30;;;1.70;;
77191;SDS011;66172;48.526;8.078;2023-02-28T02:53:41;8.10;;;2.08;;
77191;SDS011;66172;48.526;8.078;2023-02-28T02:56:17;6.55;;;1.80;;
77191;SDS011;66172;48.526;8.078;2023-02-28T02:58:45;5.50;;;1.80;;
77191;SDS011;66172;48.526;8.078;2023-02-28T03:01:16;6.23;;;1.80;;
77191;SDS011;66172;48.526;8.078;2023-02-28T03:03:56;7.07;;;1.80;;
77191;SDS011;66172;48.526;8.078;2023-02-28T03:06:24;6.28;;;1.80;;
77191;SDS011;66172;48.526;8.078;2023-02-28T03:08:50;5.43;;;1.83;;
77191;SDS011;66172;48.526;8.078;2023-02-28T03:11:16;5.38;;;2.08;;
77191;SDS011;66172;48.526;8.078;2023-02-28T03:16:53;6.38;;;2.00;;
77191;SDS011;66172;48.526;8.078;2023-02-28T03:19:54;7.38;;;2.00;;
77191;SDS011;66172;48.526;8.078;2023-02-28T03:25:46;8.83;;;2.33;;
77191;SDS011;66172;48.526;8.078;2023-02-28T03:31:30;8.02;;;2.20;;
77191;SDS011;66172;48.526;8.078;2023-02-28T03:34:05;6.47;;;2.25;;
77191;SDS011;66172;48.526;8.078;2023-02-28T03:36:37;5.63;;;2.28;;
77191;SDS011;66172;48.526;8.078;2023-02-28T03:39:26;6.47;;;2.07;;
77191;SDS011;66172;48.526;8.078;2023-02-28T03:41:58;10.35;;;3.47;;
77191;SDS011;66172;48.526;8.078;2023-02-28T03:44:30;7.43;;;2.60;;
77191;SDS011;66172;48.526;8.078;2023-02-28T03:47:02;7.57;;;2.40;;
77191;SDS011;66172;48.526;8.078;2023-02-28T03:49:35;8.18;;;2.58;;
77191;SDS011;66172;48.526;8.078;2023-02-28T03:52:09;7.57;;;2.40;;
77191;SDS011;66172;48.526;8.078;2023-02-28T03:54:41;10.32;;;3.40;;
77191;SDS011;66172;48.526;8.078;2023-02-28T03:57:20;6.88;;;2.03;;
77191;SDS011;66172;48.526;8.078;2023-02-28T03:59:59;8.88;;;2.70;;
77191;SDS011;66172;48.526;8.078;2023-02-28T04:02:31;6.90;;;3.00;;
77191;SDS011;66172;48.526;8.078;2023-02-28T04:04:59;8.30;;;2.87;;
77191;SDS011;66172;48.526;8.078;2023-02-28T04:07:28;8.02;;;2.58;;
77191;SDS011;66172;48.526;8.078;2023-02-28T04:09:55;6.80;;;2.45;;
77191;SDS011;66172;48.526;8.078;2023-02-28T04:12:21;6.50;;;2.67;;
77191;SDS011;66172;48.526;8.078;2023-02-28T04:14:48;9.45;;;2.67;;
77191;SDS011;66172;48.526;8.078;2023-02-28T04:17:15;8.43;;;2.07;;
77191;SDS011;66172;48.526;8.078;2023-02-28T04:19:41;7.35;;;2.30;;
77191;SDS011;66172;48.526;8.078;2023-02-28T04:22:08;6.32;;;2.22;;
77191;SDS011;66172;48.526;8.078;2023-02-28T04:24:35;6.40;;;2.10;;
77191;SDS011;66172;48.526;8.078;2023-02-28T04:27:01;6.03;;;2.38;;
77191;SDS011;66172;48.526;8.078;2023-02-28T04:29:28;6.90;;;2.50;;
77191;SDS011;66172;48.526;8.078;2023-02-28T04:31:56;6.47;;;2.50;;
77191;SDS011;66172;48.526;8.078;2023-02-28T04:34:26;8.38;;;2.40;;
77191;SDS011;66172;48.526;8.078;2023-02-28T04:36:53;7.63;;;2.70;;
77191;SDS011;66172;48.526;8.078;2023-02-28T04:39:20;6.22;;;2.70;;
77191;SDS011;66172;48.526;8.078;2023-02-28T04:41:47;6.30;;;2.20;;
77191;SDS011;66172;48.526;8.078;2023-02-28T04:44:13;7.20;;;2.60;;
77191;SDS011;66172;48.526;8.078;2023-02-28T04:46:40;8.15;;;2.92;;
77191;SDS011;66172;48.526;8.078;2023-02-28T04:49:06;8.50;;;3.10;;
77191;SDS011;66172;48.526;8.078;2023-02-28T04:51:34;8.63;;;3.03;;
77191;SDS011;66172;48.526;8.078;2023-02-28T04:54:00;7.10;;;2.40;;
77191;SDS011;66172;48.526;8.078;2023-02-28T04:56:26;6.38;;;2.60;;
77191;SDS011;66172;48.526;8.078;2023-02-28T04:58:51;7.85;;;2.78;;
77191;SDS011;66172;48.526;8.078;2023-02-28T05:03:46;7.45;;;2.50;;
77191;SDS011;66172;48.526;8.078;2023-02-28T05:06:13;8.68;;;3.15;;
77191;SDS011;66172;48.526;8.078;2023-02-28T05:08:40;6.32;;;2.60;;
77191;SDS011;66172;48.526;8.078;2023-02-28T05:11:07;6.05;;;2.33;;
77191;SDS011;66172;48.526;8.078;2023-02-28T05:13:40;6.47;;;2.53;;
77191;SDS011;66172;48.526;8.078;2023-02-28T05:16:07;7.20;;;2.70;;
77191;SDS011;66172;48.526;8.078;2023-02-28T05:18:33;8.90;;;3.17;;
77191;SDS011;66172;48.526;8.078;2023-02-28T05:20:59;7.40;;;2.90;;
77191;SDS011;66172;48.526;8.078;2023-02-28T05:23:27;9.60;;;2.80;;
77191;SDS011;66172;48.526;8.078;2023-02-28T05:25:53;8.43;;;3.33;;
77191;SDS011;66172;48.526;8.078;2023-02-28T05:28:19;8.80;;;3.33;;
77191;SDS011;66172;48.526;8.078;2023-02-28T05:30:46;8.38;;;3.60;;
77191;SDS011;66172;48.526;8.078;2023-02-28T05:33:12;10.05;;;4.20;;
77191;SDS011;66172;48.526;8.078;2023-02-28T05:35:39;10.48;;;3.80;;
77191;SDS011;66172;48.526;8.078;2023-02-28T05:38:05;9.73;;;3.63;;
77191;SDS011;66172;48.526;8.078;2023-02-28T05:40:31;8.95;;;3.55;;
77191;SDS011;66172;48.526;8.078;2023-02-28T05:42:57;9.85;;;3.50;;
77191;SDS011;66172;48.526;8.078;2023-02-28T05:45:23;10.87;;;3.83;;
77191;SDS011;66172;48.526;8.078;2023-02-28T05:47:49;9.25;;;3.42;;
77191;SDS011;66172;48.526;8.078;2023-02-28T05:50:19;10.20;;;3.80;;
77191;SDS011;66172;48.526;8.078;2023-02-28T05:52:48;8.88;;;4.07;;
77191;SDS011;66172;48.526;8.078;2023-02-28T05:55:15;11.20;;;4.10;;
77191;SDS011;66172;48.526;8.078;2023-02-28T05:57:41;10.45;;;3.60;;
77191;SDS011;66172;48.526;8.078;2023-02-28T06:00:08;7.97;;;3.70;;
77191;SDS011;66172;48.526;8.078;2023-02-28T06:02:34;9.18;;;3.80;;
77191;SDS011;66172;48.526;8.078;2023-02-28T06:05:00;8.40;;;3.43;;
77191;SDS011;66172;48.526;8.078;2023-02-28T06:07:26;11.73;;;3.90;;
77191;SDS011;66172;48.526;8.078;2023-02-28T06:09:52;9.27;;;3.78;;
77191;SDS011;66172;48.526;8.078;2023-02-28T06:12:18;9.43;;;3.65;;
77191;SDS011;66172;48.526;8.078;2023-02-28T06:14:44;9.20;;;3.80;;
77191;SDS011;66172;48.526;8.078;2023-02-28T06:17:10;8.45;;;3.72;;
77191;SDS011;66172;48.526;8.078;2023-02-28T06:19:38;9.50;;;4.15;;
77191;SDS011;66172;48.526;8.078;2023-02-28T06:22:04;9.13;;;3.60;;
77191;SDS011;66172;48.526;8.078;2023-02-28T06:24:30;8.57;;;3.58;;
77191;SDS011;66172;48.526;8.078;2023-02-28T06:26:56;8.80;;;3.60;;
77191;SDS011;66172;48.526;8.078;2023-02-28T06:29:24;8.88;;;3.78;;
77191;SDS011;66172;48.526;8.078;2023-02-28T06:31:50;9.80;;;4.07;;
77191;SDS011;66172;48.526;8.078;2023-02-28T06:34:16;13.00;;;4.77;;
77191;SDS011;66172;48.526;8.078;2023-02-28T06:36:42;14.32;;;5.78;;
77191;SDS011;66172;48.526;8.078;2023-02-28T06:39:08;9.30;;;3.90;;
77191;SDS011;66172;48.526;8.078;2023-02-28T06:41:35;8.88;;;3.88;;
77191;SDS011;66172;48.526;8.078;2023-02-28T06:44:08;10.13;;;3.67;;
77191;SDS011;66172;48.526;8.078;2023-02-28T06:46:41;15.55;;;4.00;;
77191;SDS011;66172;48.526;8.078;2023-02-28T06:49:08;9.27;;;3.55;;
77191;SDS011;66172;48.526;8.078;2023-02-28T06:51:35;9.57;;;3.50;;
77191;SDS011;66172;48.526;8.078;2023-02-28T06:54:02;10.18;;;3.97;;
77191;SDS011;66172;48.526;8.078;2023-02-28T06:56:29;9.20;;;3.50;;
77191;SDS011;66172;48.526;8.078;2023-02-28T06:58:55;10.27;;;3.65;;
77191;SDS011;66172;48.526;8.078;2023-02-28T07:01:21;10.93;;;4.43;;
77191;SDS011;66172;48.526;8.078;2023-02-28T07:03:50;12.15;;;4.97;;
77191;SDS011;66172;48.526;8.078;2023-02-28T07:06:20;12.02;;;4.72;;
77191;SDS011;66172;48.526;8.078;2023-02-28T07:08:48;9.37;;;4.30;;
77191;SDS011;66172;48.526;8.078;2023-02-28T07:11:15;9.50;;;4.05;;
77191;SDS011;66172;48.526;8.078;2023-02-28T07:13:41;11.10;;;4.25;;
77191;SDS011;66172;48.526;8.078;2023-02-28T07:16:08;9.45;;;4.10;;
77191;SDS011;66172;48.526;8.078;2023-02-28T07:18:36;11.17;;;4.83;;
77191;SDS011;66172;48.526;8.078;2023-02-28T07:21:02;11.55;;;4.13;;
77191;SDS011;66172;48.526;8.078;2023-02-28T07:23:29;10.65;;;4.07;;
77191;SDS011;66172;48.526;8.078;2023-02-28T07:25:55;11.27;;;4.35;;
77191;SDS011;66172;48.526;8.078;2023-02-28T07:28:21;11.40;;;4.82;;
77191;SDS011;66172;48.526;8.078;2023-02-28T07:30:47;9.93;;;4.27;;
77191;SDS011;66172;48.526;8.078;2023-02-28T07:33:13;9.20;;;4.25;;
77191;SDS011;66172;48.526;8.078;2023-02-28T07:35:39;10.40;;;3.95;;
77191;SDS011;66172;48.526;8.078;2023-02-28T07:38:05;11.10;;;4.43;;
77191;SDS011;66172;48.526;8.078;2023-02-28T07:40:33;13.23;;;4.68;;
77191;SDS011;66172;48.526;8.078;2023-02-28T07:43:00;13.00;;;5.40;;
77191;SDS011;66172;48.526;8.078;2023-02-28T07:45:27;10.95;;;4.20;;
77191;SDS011;66172;48.526;8.078;2023-02-28T07:47:54;9.15;;;4.40;;
77191;SDS011;66172;48.526;8.078;2023-02-28T07:50:21;11.67;;;4.30;;
77191;SDS011;66172;48.526;8.078;2023-02-28T07:52:47;11.40;;;4.53;;
77191;SDS011;66172;48.526;8.078;2023-02-28T07:55:13;10.35;;;4.30;;
77191;SDS011;66172;48.526;8.078;2023-02-28T07:57:40;10.65;;;4.32;;
77191;SDS011;66172;48.526;8.078;2023-02-28T08:00:07;12.32;;;4.63;;
77191;SDS011;66172;48.526;8.078;2023-02-28T08:02:36;10.93;;;5.00;;
77191;SDS011;66172;48.526;8.078;2023-02-28T08:05:02;11.13;;;4.32;;
77191;SDS011;66172;48.526;8.078;2023-02-28T08:07:28;13.10;;;4.75;;
77191;SDS011;66172;48.526;8.078;2023-02-28T08:09:54;13.18;;;5.75;;
77191;SDS011;66172;48.526;8.078;2023-02-28T08:12:20;9.87;;;4.70;;
77191;SDS011;66172;48.526;8.078;2023-02-28T08:14:46;23.00;;;8.55;;
77191;SDS011;66172;48.526;8.078;2023-02-28T08:17:12;11.27;;;4.57;;
77191;SDS011;66172;48.526;8.078;2023-02-28T08:19:37;22.60;;;8.83;;
77191;SDS011;66172;48.526;8.078;2023-02-28T08:22:03;13.98;;;5.43;;
77191;SDS011;66172;48.526;8.078;2023-02-28T08:24:29;10.65;;;4.75;;
77191;SDS011;66172;48.526;8.078;2023-02-28T08:26:56;11.27;;;4.47;;
77191;SDS011;66172;48.526;8.078;2023-02-28T08:29:22;12.48;;;5.30;;
77191;SDS011;66172;48.526;8.078;2023-02-28T08:31:48;11.47;;;5.07;;
77191;SDS011;66172;48.526;8.078;2023-02-28T08:34:14;12.63;;;4.68;;
77191;SDS011;66172;48.526;8.078;2023-02-28T08:36:41;10.68;;;4.55;;
77191;SDS011;66172;48.526;8.078;2023-02-28T08:39:09;10.93;;;4.47;;
77191;SDS011;66172;48.526;8.078;2023-02-28T08:41:36;12.40;;;5.43;;
77191;SDS011;66172;48.526;8.078;2023-02-28T08:44:02;13.10;;;5.13;;
77191;SDS011;66172;48.526;8.078;2023-02-28T08:46:28;11.15;;;4.47;;
77191;SDS011;66172;48.526;8.078;2023-02-28T08:48:55;10.82;;;4.75;;
77191;SDS011;66172;48.526;8.078;2023-02-28T08:51:25;12.25;;;5.28;;
77191;SDS011;66172;48.526;8.078;2023-02-28T08:53:52;9.80;;;4.43;;
77191;SDS011;66172;48.526;8.078;2023-02-28T08:56:20;10.27;;;4.72;;
77191;SDS011;66172;48.526;8.078;2023-02-28T08:58:46;11.77;;;4.55;;
77191;SDS011;66172;48.526;8.078;2023-02-28T09:01:15;10.07;;;4.75;;
77191;SDS011;66172;48.526;8.078;2023-02-28T09:03:43;11.35;;;4.50;;
77191;SDS011;66172;48.526;8.078;2023-02-28T09:06:10;11.37;;;4.33;;
77191;SDS011;66172;48.526;8.078;2023-02-28T09:08:37;9.80;;;4.40;;
77191;SDS011;66172;48.526;8.078;2023-02-28T09:11:03;11.85;;;5.05;;
77191;SDS011;66172;48.526;8.078;2023-02-28T09:13:29;12.50;;;4.82;;
77191;SDS011;66172;48.526;8.078;2023-02-28T09:15:58;12.20;;;4.32;;
77191;SDS011;66172;48.526;8.078;2023-02-28T09:18:25;13.20;;;4.80;;
77191;SDS011;66172;48.526;8.078;2023-02-28T09:20:52;44.63;;;14.15;;
77191;SDS011;66172;48.526;8.078;2023-02-28T09:23:18;28.63;;;9.52;;
77191;SDS011;66172;48.526;8.078;2023-02-28T09:25:45;11.52;;;5.00;;
77191;SDS011;66172;48.526;8.078;2023-02-28T09:28:15;10.55;;;4.97;;
77191;SDS011;66172;48.526;8.078;2023-02-28T09:30:46;11.20;;;4.57;;
77191;SDS011;66172;48.526;8.078;2023-02-28T09:33:14;13.23;;;5.30;;
77191;SDS011;66172;48.526;8.078;2023-02-28T09:35:41;12.65;;;5.40;;
77191;SDS011;66172;48.526;8.078;2023-02-28T09:38:08;10.93;;;4.80;;
77191;SDS011;66172;48.526;8.078;2023-02-28T09:40:41;14.00;;;5.18;;
77191;SDS011;66172;48.526;8.078;2023-02-28T09:43:14;12.97;;;5.50;;
77191;SDS011;66172;48.526;8.078;2023-02-28T09:45:45;12.32;;;4.75;;
77191;SDS011;66172;48.526;8.078;2023-02-28T09:48:32;12.93;;;4.97;;
77191;SDS011;66172;48.526;8.078;2023-02-28T09:51:09;11.98;;;5.32;;
77191;SDS011;66172;48.526;8.078;2023-02-28T09:53:49;12.30;;;5.82;;
77191;SDS011;66172;48.526;8.078;2023-02-28T09:56:15;14.13;;;6.10;;
77191;SDS011;66172;48.526;8.078;2023-02-28T09:58:53;12.32;;;5.53;;
77191;SDS011;66172;48.526;8.078;2023-02-28T10:04:36;11.48;;;4.93;;
77191;SDS011;66172;48.526;8.078;2023-02-28T10:07:11;12.07;;;5.63;;
77191;SDS011;66172;48.526;8.078;2023-02-28T10:09:45;10.57;;;5.33;;
77191;SDS011;66172;48.526;8.078;2023-02-28T10:12:16;14.30;;;6.00;;
77191;SDS011;66172;48.526;8.078;2023-02-28T10:14:44;12.52;;;5.38;;
77191;SDS011;66172;48.526;8.078;2023-02-28T10:17:14;13.30;;;5.55;;
77191;SDS011;66172;48.526;8.078;2023-02-28T10:22:16;11.17;;;5.07;;
77191;SDS011;66172;48.526;8.078;2023-02-28T10:24:47;12.15;;;5.65;;
77191;SDS011;66172;48.526;8.078;2023-02-28T10:27:17;12.32;;;5.03;;
77191;SDS011;66172;48.526;8.078;2023-02-28T10:29:55;10.95;;;5.13;;
77191;SDS011;66172;48.526;8.078;2023-02-28T10:32:23;12.18;;;4.82;;
77191;SDS011;66172;48.526;8.078;2023-02-28T10:34:55;10.93;;;5.20;;
77191;SDS011;66172;48.526;8.078;2023-02-28T10:37:25;14.02;;;4.85;;
77191;SDS011;66172;48.526;8.078;2023-02-28T10:39:51;12.65;;;4.85;;
77191;SDS011;66172;48.526;8.078;2023-02-28T10:45:05;14.57;;;5.07;;
77191;SDS011;66172;48.526;8.078;2023-02-28T10:50:30;14.77;;;6.07;;
77191;SDS011;66172;48.526;8.078;2023-02-28T10:53:10;12.68;;;5.05;;
77191;SDS011;66172;48.526;8.078;2023-02-28T10:55:42;12.93;;;5.72;;
77191;SDS011;66172;48.526;8.078;2023-02-28T10:58:21;12.70;;;5.63;;
77191;SDS011;66172;48.526;8.078;2023-02-28T11:00:48;13.45;;;5.57;;
77191;SDS011;66172;48.526;8.078;2023-02-28T11:03:32;12.43;;;5.43;;
77191;SDS011;66172;48.526;8.078;2023-02-28T11:06:04;12.20;;;5.72;;
77191;SDS011;66172;48.526;8.078;2023-02-28T11:11:15;13.57;;;6.23;;
77191;SDS011;66172;48.526;8.078;2023-02-28T11:13:42;13.48;;;6.03;;
77191;SDS011;66172;48.526;8.078;2023-02-28T11:16:10;13.55;;;5.50;;
77191;SDS011;66172;48.526;8.078;2023-02-28T11:21:21;13.18;;;6.10;;
77191;SDS011;66172;48.526;8.078;2023-02-28T11:23:51;12.27;;;5.30;;
77191;SDS011;66172;48.526;8.078;2023-02-28T11:26:36;10.82;;;5.40;;
77191;SDS011;66172;48.526;8.078;2023-02-28T11:29:21;13.82;;;5.45;;
77191;SDS011;66172;48.526;8.078;2023-02-28T11:32:33;12.75;;;5.68;;
77191;SDS011;66172;48.526;8.078;2023-02-28T11:34:40;13.52;;;5.78;;
77191;SDS011;66172;48.526;8.078;2023-02-28T11:37:11;14.40;;;5.53;;
77191;SDS011;66172;48.526;8.078;2023-02-28T11:39:40;10.73;;;5.40;;
77191;SDS011;66172;48.526;8.078;2023-02-28T11:45:03;13.07;;;5.28;;
77191;SDS011;66172;48.526;8.078;2023-02-28T11:47:41;12.65;;;5.72;;
77191;SDS011;66172;48.526;8.078;2023-02-28T11:53:01;13.10;;;5.70;;
77191;SDS011;66172;48.526;8.078;2023-02-28T11:55:39;16.13;;;6.40;;
77191;SDS011;66172;48.526;8.078;2023-02-28T12:03:27;13.70;;;6.20;;
77191;SDS011;66172;48.526;8.078;2023-02-28T12:11:53;15.13;;;6.28;;
77191;SDS011;66172;48.526;8.078;2023-02-28T12:17:22;13.67;;;6.17;;
77191;SDS011;66172;48.526;8.078;2023-02-28T12:20:05;13.70;;;6.15;;
77191;SDS011;66172;48.526;8.078;2023-02-28T12:28:18;11.48;;;5.47;;
77191;SDS011;66172;48.526;8.078;2023-02-28T12:31:32;11.40;;;5.73;;
77191;SDS011;66172;48.526;8.078;2023-02-28T12:33:53;12.73;;;6.15;;
77191;SDS011;66172;48.526;8.078;2023-02-28T12:36:30;13.23;;;5.18;;
77191;SDS011;66172;48.526;8.078;2023-02-28T12:39:03;12.02;;;5.70;;
77191;SDS011;66172;48.526;8.078;2023-02-28T12:41:42;13.63;;;5.57;;
77191;SDS011;66172;48.526;8.078;2023-02-28T12:44:25;13.37;;;5.90;;
77191;SDS011;66172;48.526;8.078;2023-02-28T12:47:02;11.70;;;4.95;;
77191;SDS011;66172;48.526;8.078;2023-02-28T12:49:32;11.68;;;5.82;;
77191;SDS011;66172;48.526;8.078;2023-02-28T12:51:59;14.10;;;5.30;;
77191;SDS011;66172;48.526;8.078;2023-02-28T12:54:32;13.27;;;5.25;;
77191;SDS011;66172;48.526;8.078;2023-02-28T12:57:11;11.67;;;5.13;;
77191;SDS011;66172;48.526;8.078;2023-02-28T12:59:42;12.13;;;5.60;;
77191;SDS011;66172;48.526;8.078;2023-02-28T13:05:12;11.10;;;4.88;;
77191;SDS011;66172;48.526;8.078;2023-02-28T13:08:20;12.40;;;5.50;;
77191;SDS011;66172;48.526;8.078;2023-02-28T13:10:54;11.77;;;5.27;;
77191;SDS011;66172;48.526;8.078;2023-02-28T13:13:21;12.27;;;5.38;;
77191;SDS011;66172;48.526;8.078;2023-02-28T13:18:38;15.65;;;5.68;;
77191;SDS011;66172;48.526;8.078;2023-02-28T13:21:08;12.60;;;5.90;;
77191;SDS011;66172;48.526;8.078;2023-02-28T13:34:27;9.75;;;4.97;;
77191;SDS011;66172;48.526;8.078;2023-02-28T13:39:48;12.55;;;5.57;;
77191;SDS011;66172;48.526;8.078;2023-02-28T13:42:31;13.43;;;5.40;;
77191;SDS011;66172;48.526;8.078;2023-02-28T14:01:14;11.60;;;5.35;;
77191;SDS011;66172;48.526;8.078;2023-02-28T14:03:54;10.10;;;4.97;;
77191;SDS011;66172;48.526;8.078;2023-02-28T14:06:30;11.55;;;5.80;;
77191;SDS011;66172;48.526;8.078;2023-02-28T14:09:23;11.60;;;5.90;;
77191;SDS011;66172;48.526;8.078;2023-02-28T14:11:49;10.50;;;5.43;;
77191;SDS011;66172;48.526;8.078;2023-02-28T14:16:59;12.40;;;5.88;;
77191;SDS011;66172;48.526;8.078;2023-02-28T14:19:31;13.10;;;5.53;;
77191;SDS011;66172;48.526;8.078;2023-02-28T14:22:10;12.20;;;5.55;;
77191;SDS011;66172;48.526;8.078;2023-02-28T14:28:31;11.55;;;5.13;;
77191;SDS011;66172;48.526;8.078;2023-02-28T14:31:09;12.98;;;6.20;;
77191;SDS011;66172;48.526;8.078;2023-02-28T14:33:42;11.77;;;5.47;;
77191;SDS011;66172;48.526;8.078;2023-02-28T14:36:12;11.82;;;5.57;;
77191;SDS011;66172;48.526;8.078;2023-02-28T14:38:47;11.97;;;5.37;;
77191;SDS011;66172;48.526;8.078;2023-02-28T14:41:23;11.65;;;5.70;;
77191;SDS011;66172;48.526;8.078;2023-02-28T14:43:55;10.18;;;5.47;;
77191;SDS011;66172;48.526;8.078;2023-02-28T14:46:23;11.30;;;5.43;;
77191;SDS011;66172;48.526;8.078;2023-02-28T14:48:54;11.77;;;5.65;;
77191;SDS011;66172;48.526;8.078;2023-02-28T14:51:21;10.57;;;5.47;;
77191;SDS011;66172;48.526;8.078;2023-02-28T14:53:49;11.18;;;5.28;;
77191;SDS011;66172;48.526;8.078;2023-02-28T14:56:19;10.77;;;5.70;;
77191;SDS011;66172;48.526;8.078;2023-02-28T14:58:51;11.40;;;5.30;;
77191;SDS011;66172;48.526;8.078;2023-02-28T15:01:19;9.75;;;5.10;;
77191;SDS011;66172;48.526;8.078;2023-02-28T15:03:47;11.60;;;5.27;;
77191;SDS011;66172;48.526;8.078;2023-02-28T15:06:21;12.93;;;6.10;;
77191;SDS011;66172;48.526;8.078;2023-02-28T15:08:48;13.55;;;6.40;;
77191;SDS011;66172;48.526;8.078;2023-02-28T15:11:44;14.18;;;6.00;;
77191;SDS011;66172;48.526;8.078;2023-02-28T15:14:17;11.32;;;5.70;;
77191;SDS011;66172;48.526;8.078;2023-02-28T15:16:49;10.63;;;5.77;;
77191;SDS011;66172;48.526;8.078;2023-02-28T15:22:04;11.30;;;6.05;;
77191;SDS011;66172;48.526;8.078;2023-02-28T15:24:39;11.02;;;5.47;;
77191;SDS011;66172;48.526;8.078;2023-02-28T15:27:13;11.95;;;5.90;;
77191;SDS011;66172;48.526;8.078;2023-02-28T15:29:50;11.67;;;4.90;;
77191;SDS011;66172;48.526;8.078;2023-02-28T15:32:33;9.60;;;5.10;;
77191;SDS011;66172;48.526;8.078;2023-02-28T15:35:26;9.55;;;5.32;;
77191;SDS011;66172;48.526;8.078;2023-02-28T15:37:55;10.02;;;5.43;;
77191;SDS011;66172;48.526;8.078;2023-02-28T15:40:25;14.13;;;5.80;;
77191;SDS011;66172;48.526;8.078;2023-02-28T15:43:25;12.23;;;5.63;;
77191;SDS011;66172;48.526;8.078;2023-02-28T15:45:45;11.15;;;5.63;;
77191;SDS011;66172;48.526;8.078;2023-02-28T15:48:15;13.18;;;5.70;;
77191;SDS011;66172;48.526;8.078;2023-02-28T15:50:46;10.57;;;5.22;;
77191;SDS011;66172;48.526;8.078;2023-02-28T15:53:16;12.85;;;5.95;;
77191;SDS011;66172;48.526;8.078;2023-02-28T15:55:44;12.73;;;6.10;;
77191;SDS011;66172;48.526;8.078;2023-02-28T15:58:11;12.55;;;5.95;;
77191;SDS011;66172;48.526;8.078;2023-02-28T16:00:39;12.35;;;5.93;;
77191;SDS011;66172;48.526;8.078;2023-02-28T16:03:26;13.57;;;5.53;;
77191;SDS011;66172;48.526;8.078;2023-02-28T16:08:51;11.20;;;5.70;;
77191;SDS011;66172;48.526;8.078;2023-02-28T16:11:19;13.82;;;6.43;;
77191;SDS011;66172;48.526;8.078;2023-02-28T16:13:46;11.68;;;5.82;;
77191;SDS011;66172;48.526;8.078;2023-02-28T16:16:15;10.82;;;5.32;;
77191;SDS011;66172;48.526;8.078;2023-02-28T16:18:42;11.30;;;5.30;;
77191;SDS011;66172;48.526;8.078;2023-02-28T16:21:08;13.80;;;5.77;;
77191;SDS011;66172;48.526;8.078;2023-02-28T16:23:34;11.90;;;5.68;;
77191;SDS011;66172;48.526;8.078;2023-02-28T16:26:00;13.20;;;5.88;;
77191;SDS011;66172;48.526;8.078;2023-02-28T16:28:29;11.68;;;6.38;;
77191;SDS011;66172;48.526;8.078;2023-02-28T16:31:01;10.80;;;5.13;;
77191;SDS011;66172;48.526;8.078;2023-02-28T16:33:29;15.23;;;6.03;;
77191;SDS011;66172;48.526;8.078;2023-02-28T16:35:56;12.23;;;6.00;;
77191;SDS011;66172;48.526;8.078;2023-02-28T16:38:22;12.52;;;5.57;;
77191;SDS011;66172;48.526;8.078;2023-02-28T16:40:50;11.57;;;5.63;;
77191;SDS011;66172;48.526;8.078;2023-02-28T16:43:18;11.50;;;5.40;;
77191;SDS011;66172;48.526;8.078;2023-02-28T16:45:47;13.82;;;5.72;;
77191;SDS011;66172;48.526;8.078;2023-02-28T16:48:14;12.13;;;5.78;;
77191;SDS011;66172;48.526;8.078;2023-02-28T16:50:41;13.68;;;5.80;;
77191;SDS011;66172;48.526;8.078;2023-02-28T16:53:10;15.27;;;7.10;;
77191;SDS011;66172;48.526;8.078;2023-02-28T16:55:36;19.38;;;8.63;;